Estación Meteorológica Peña el Pijo (Robertgarden) [ 09/25/17 15:15:21 CEST ]

Fecha Hora Presion(HPa) Temp (°C) Humedad % Rocio (°C) Viento ( m/s) Direccion Lluvia 1Hora(mm) Lluvia 24H(mm) LLuvia Total(mm)
2017-May-02 01:01:53 1011.900 6.8 75 2.7         1390.83
2017-May-02 02:01:50 1011.600 5.9 77 2.2         1390.83
2017-May-02 03:01:43 1011.200 5.3 80 2.1         1390.83
2017-May-02 04:01:43 1011.000 4.9 81 1.9         1390.83
2017-May-02 05:01:39 1010.900 4.3 82 1.5         1390.83
2017-May-02 06:01:42 1010.900 3.6 83 1.0         1390.83
2017-May-02 07:01:43 1010.900 3.8 84 1.3         1390.83
2017-May-02 08:01:52 1011.200 4.6 85 2.3         1390.83
2017-May-02 09:01:54 1010.800 10.0 86 7.7         1390.83
2017-May-02 10:01:53 1010.500 15.4 62 8.2         1390.83
2017-May-02 11:01:39 1010.100 19.9 43 6.9         1390.83
2017-May-02 12:01:50 1009.800 23.3 35 6.9         1390.83
2017-May-02 13:02:03 1009.700 24.4 30 5.8         1390.83
2017-May-02 14:01:59 1009.100 24.1 30 5.5         1390.83
2017-May-02 15:01:37 1008.600 25.2 28 5.3         1390.83
2017-May-02 16:02:00 1008.600 25.3 29 6.0         1390.83
2017-May-02 17:01:39 1008.200 22.1 35 5.8         1390.83
2017-May-02 18:01:53 1008.000 22.9 36 6.9         1390.83
2017-May-02 19:01:38 1008.100 21.6 40 7.4         1390.83
2017-May-02 20:01:47 1008.100 18.6 46 6.7         1390.83
2017-May-02 21:01:45 1008.500 16.2 51 6.0         1390.83
2017-May-02 22:01:43 1008.900 13.8 59 5.9         1390.83
2017-May-02 23:01:39 1009.700 11.8 66 5.6         1390.83

Temperatura Máxima:25°    Temperatura Mínima:
Presión Máxima:1011.900 Hpa    Presión Mínima:1008.000 Hpa


Volver